sensor_id;sensor_type;location;lat;lon;timestamp;pressure;altitude;pressure_sealevel;temperature;humidity
57024;BME280;42916;54.346;18.562;2022-09-27T00:00:06;98991.48;;;10.76;100.00
57024;BME280;42916;54.346;18.562;2022-09-27T00:02:58;98993.31;;;10.69;100.00
57024;BME280;42916;54.346;18.562;2022-09-27T00:05:25;98986.19;;;10.64;100.00
57024;BME280;42916;54.346;18.562;2022-09-27T00:07:52;98988.31;;;10.59;100.00
57024;BME280;42916;54.346;18.562;2022-09-27T00:10:19;98982.88;;;10.54;100.00
57024;BME280;42916;54.346;18.562;2022-09-27T00:12:46;98985.48;;;10.49;100.00
57024;BME280;42916;54.346;18.562;2022-09-27T00:15:14;98983.10;;;10.43;100.00
57024;BME280;42916;54.346;18.562;2022-09-27T00:17:40;98978.65;;;10.38;100.00
57024;BME280;42916;54.346;18.562;2022-09-27T00:20:07;98977.45;;;10.34;100.00
57024;BME280;42916;54.346;18.562;2022-09-27T00:22:35;98978.23;;;10.31;100.00
57024;BME280;42916;54.346;18.562;2022-09-27T00:25:02;98980.57;;;10.29;100.00
57024;BME280;42916;54.346;18.562;2022-09-27T00:27:32;98975.42;;;10.27;100.00
57024;BME280;42916;54.346;18.562;2022-09-27T00:29:59;98972.55;;;10.26;100.00
57024;BME280;42916;54.346;18.562;2022-09-27T00:32:26;98973.42;;;10.25;100.00
57024;BME280;42916;54.346;18.562;2022-09-27T00:34:53;98974.16;;;10.24;100.00
57024;BME280;42916;54.346;18.562;2022-09-27T00:37:20;98975.41;;;10.23;100.00
57024;BME280;42916;54.346;18.562;2022-09-27T00:39:46;98973.16;;;10.21;100.00
57024;BME280;42916;54.346;18.562;2022-09-27T00:42:14;98969.95;;;10.19;100.00
57024;BME280;42916;54.346;18.562;2022-09-27T00:47:16;98968.20;;;10.16;100.00
57024;BME280;42916;54.346;18.562;2022-09-27T00:49:57;98964.12;;;10.15;100.00
57024;BME280;42916;54.346;18.562;2022-09-27T00:52:29;98960.77;;;10.15;100.00
57024;BME280;42916;54.346;18.562;2022-09-27T00:55:06;98958.77;;;10.13;100.00
57024;BME280;42916;54.346;18.562;2022-09-27T00:57:35;98956.61;;;10.12;100.00
57024;BME280;42916;54.346;18.562;2022-09-27T01:00:08;98960.69;;;10.12;100.00
57024;BME280;42916;54.346;18.562;2022-09-27T01:02:37;98958.89;;;10.12;100.00
57024;BME280;42916;54.346;18.562;2022-09-27T01:05:07;98957.06;;;10.11;100.00
57024;BME280;42916;54.346;18.562;2022-09-27T01:07:35;98956.84;;;10.11;100.00
57024;BME280;42916;54.346;18.562;2022-09-27T01:10:02;98950.62;;;10.08;100.00
57024;BME280;42916;54.346;18.562;2022-09-27T01:12:52;98950.08;;;10.08;100.00
57024;BME280;42916;54.346;18.562;2022-09-27T01:21:38;98949.39;;;10.06;100.00
57024;BME280;42916;54.346;18.562;2022-09-27T01:28:03;98943.91;;;10.06;100.00
57024;BME280;42916;54.346;18.562;2022-09-27T01:30:41;98941.29;;;10.06;100.00
57024;BME280;42916;54.346;18.562;2022-09-27T01:33:31;98937.27;;;10.06;100.00
57024;BME280;42916;54.346;18.562;2022-09-27T01:38:48;98926.75;;;10.08;100.00
57024;BME280;42916;54.346;18.562;2022-09-27T01:41:24;98923.42;;;10.10;100.00
57024;BME280;42916;54.346;18.562;2022-09-27T01:44:26;98927.39;;;10.14;100.00
57024;BME280;42916;54.346;18.562;2022-09-27T01:47:06;98922.40;;;10.14;100.00
57024;BME280;42916;54.346;18.562;2022-09-27T01:49:55;98923.35;;;10.12;100.00
57024;BME280;42916;54.346;18.562;2022-09-27T01:52:29;98923.63;;;10.11;100.00
57024;BME280;42916;54.346;18.562;2022-09-27T01:55:00;98925.98;;;10.10;100.00
57024;BME280;42916;54.346;18.562;2022-09-27T01:57:54;98926.23;;;10.08;100.00
57024;BME280;42916;54.346;18.562;2022-09-27T02:00:24;98923.52;;;10.08;100.00
57024;BME280;42916;54.346;18.562;2022-09-27T02:03:00;98923.34;;;10.08;100.00
57024;BME280;42916;54.346;18.562;2022-09-27T02:05:37;98926.06;;;10.08;100.00
57024;BME280;42916;54.346;18.562;2022-09-27T02:11:22;98924.45;;;10.11;100.00
57024;BME280;42916;54.346;18.562;2022-09-27T02:14:22;98916.80;;;10.10;100.00
57024;BME280;42916;54.346;18.562;2022-09-27T02:19:49;98917.73;;;10.08;100.00
57024;BME280;42916;54.346;18.562;2022-09-27T02:25:03;98911.59;;;10.10;100.00
57024;BME280;42916;54.346;18.562;2022-09-27T02:30:21;98900.62;;;10.14;100.00
57024;BME280;42916;54.346;18.562;2022-09-27T02:32:52;98898.77;;;10.14;100.00
57024;BME280;42916;54.346;18.562;2022-09-27T02:35:38;98898.25;;;10.15;100.00
57024;BME280;42916;54.346;18.562;2022-09-27T02:38:06;98896.30;;;10.12;100.00
57024;BME280;42916;54.346;18.562;2022-09-27T02:40:35;98891.63;;;10.06;100.00
57024;BME280;42916;54.346;18.562;2022-09-27T02:43:07;98892.67;;;10.01;100.00
57024;BME280;42916;54.346;18.562;2022-09-27T03:00:18;98890.38;;;9.57;100.00
57024;BME280;42916;54.346;18.562;2022-09-27T03:03:16;98885.33;;;9.52;100.00
57024;BME280;42916;54.346;18.562;2022-09-27T03:06:07;98888.22;;;9.44;100.00
57024;BME280;42916;54.346;18.562;2022-09-27T03:08:36;98883.82;;;9.38;100.00
57024;BME280;42916;54.346;18.562;2022-09-27T03:11:06;98885.59;;;9.33;100.00
57024;BME280;42916;54.346;18.562;2022-09-27T03:13:33;98883.86;;;9.26;100.00
57024;BME280;42916;54.346;18.562;2022-09-27T03:16:02;98880.39;;;9.19;100.00
57024;BME280;42916;54.346;18.562;2022-09-27T03:18:55;98881.00;;;9.10;100.00
57024;BME280;42916;54.346;18.562;2022-09-27T03:21:40;98879.86;;;9.03;100.00
57024;BME280;42916;54.346;18.562;2022-09-27T03:24:08;98880.31;;;8.99;100.00
57024;BME280;42916;54.346;18.562;2022-09-27T03:26:35;98876.23;;;8.94;100.00
57024;BME280;42916;54.346;18.562;2022-09-27T03:29:01;98873.33;;;8.90;100.00
57024;BME280;42916;54.346;18.562;2022-09-27T03:31:28;98873.90;;;8.87;100.00
57024;BME280;42916;54.346;18.562;2022-09-27T03:34:34;98867.20;;;8.83;100.00
57024;BME280;42916;54.346;18.562;2022-09-27T03:37:00;98872.02;;;8.81;100.00
57024;BME280;42916;54.346;18.562;2022-09-27T03:39:27;98866.41;;;8.79;100.00
57024;BME280;42916;54.346;18.562;2022-09-27T03:41:54;98861.39;;;8.75;100.00
57024;BME280;42916;54.346;18.562;2022-09-27T03:44:20;98859.02;;;8.73;100.00
57024;BME280;42916;54.346;18.562;2022-09-27T03:46:47;98850.63;;;8.70;100.00
57024;BME280;42916;54.346;18.562;2022-09-27T03:49:14;98852.54;;;8.68;100.00
57024;BME280;42916;54.346;18.562;2022-09-27T03:51:40;98846.10;;;8.66;100.00
57024;BME280;42916;54.346;18.562;2022-09-27T03:54:08;98847.73;;;8.64;100.00
57024;BME280;42916;54.346;18.562;2022-09-27T03:56:35;98840.55;;;8.60;100.00
57024;BME280;42916;54.346;18.562;2022-09-27T03:59:02;98844.25;;;8.58;100.00
57024;BME280;42916;54.346;18.562;2022-09-27T04:01:31;98841.91;;;8.57;100.00
57024;BME280;42916;54.346;18.562;2022-09-27T04:04:02;98837.23;;;8.54;100.00
57024;BME280;42916;54.346;18.562;2022-09-27T04:06:31;98836.98;;;8.51;100.00
57024;BME280;42916;54.346;18.562;2022-09-27T04:09:00;98839.91;;;8.47;100.00
57024;BME280;42916;54.346;18.562;2022-09-27T04:11:37;98837.02;;;8.42;100.00
57024;BME280;42916;54.346;18.562;2022-09-27T04:14:04;98845.34;;;8.40;100.00
57024;BME280;42916;54.346;18.562;2022-09-27T04:16:34;98845.19;;;8.39;100.00
57024;BME280;42916;54.346;18.562;2022-09-27T04:19:21;98852.65;;;8.40;100.00
57024;BME280;42916;54.346;18.562;2022-09-27T04:22:03;98849.04;;;8.41;100.00
57024;BME280;42916;54.346;18.562;2022-09-27T04:24:31;98849.35;;;8.41;100.00
57024;BME280;42916;54.346;18.562;2022-09-27T04:27:14;98850.77;;;8.42;100.00
57024;BME280;42916;54.346;18.562;2022-09-27T04:29:45;98848.13;;;8.43;100.00
57024;BME280;42916;54.346;18.562;2022-09-27T04:32:43;98845.55;;;8.45;100.00
57024;BME280;42916;54.346;18.562;2022-09-27T04:35:30;98844.59;;;8.44;100.00
57024;BME280;42916;54.346;18.562;2022-09-27T04:38:15;98841.00;;;8.42;100.00
57024;BME280;42916;54.346;18.562;2022-09-27T04:40:42;98843.44;;;8.42;100.00
57024;BME280;42916;54.346;18.562;2022-09-27T04:43:09;98839.50;;;8.40;100.00
57024;BME280;42916;54.346;18.562;2022-09-27T04:45:36;98831.33;;;8.38;100.00
57024;BME280;42916;54.346;18.562;2022-09-27T04:48:03;98831.65;;;8.36;100.00
57024;BME280;42916;54.346;18.562;2022-09-27T04:50:31;98832.59;;;8.34;100.00
57024;BME280;42916;54.346;18.562;2022-09-27T04:53:04;98830.55;;;8.31;100.00
57024;BME280;42916;54.346;18.562;2022-09-27T04:55:31;98832.45;;;8.29;100.00
57024;BME280;42916;54.346;18.562;2022-09-27T04:57:58;98832.02;;;8.30;100.00
57024;BME280;42916;54.346;18.562;2022-09-27T05:00:27;98833.53;;;8.30;100.00
57024;BME280;42916;54.346;18.562;2022-09-27T05:03:00;98828.33;;;8.30;100.00
57024;BME280;42916;54.346;18.562;2022-09-27T05:05:49;98834.23;;;8.28;100.00
57024;BME280;42916;54.346;18.562;2022-09-27T05:08:15;98836.23;;;8.28;100.00
57024;BME280;42916;54.346;18.562;2022-09-27T05:11:05;98835.31;;;8.30;100.00
57024;BME280;42916;54.346;18.562;2022-09-27T05:13:31;98831.61;;;8.34;100.00
57024;BME280;42916;54.346;18.562;2022-09-27T05:16:03;98828.13;;;8.37;100.00
57024;BME280;42916;54.346;18.562;2022-09-27T05:18:59;98828.54;;;8.42;100.00
57024;BME280;42916;54.346;18.562;2022-09-27T05:21:44;98834.61;;;8.47;100.00
57024;BME280;42916;54.346;18.562;2022-09-27T05:24:11;98828.99;;;8.53;100.00
57024;BME280;42916;54.346;18.562;2022-09-27T05:26:37;98827.77;;;8.56;100.00
57024;BME280;42916;54.346;18.562;2022-09-27T05:29:04;98823.73;;;8.60;100.00
57024;BME280;42916;54.346;18.562;2022-09-27T05:31:31;98827.45;;;8.64;100.00
57024;BME280;42916;54.346;18.562;2022-09-27T05:33:57;98824.12;;;8.69;100.00
57024;BME280;42916;54.346;18.562;2022-09-27T05:36:37;98821.23;;;8.73;100.00
57024;BME280;42916;54.346;18.562;2022-09-27T05:39:04;98822.50;;;8.76;100.00
57024;BME280;42916;54.346;18.562;2022-09-27T05:41:32;98821.55;;;8.81;100.00
57024;BME280;42916;54.346;18.562;2022-09-27T05:43:59;98818.80;;;8.83;100.00
57024;BME280;42916;54.346;18.562;2022-09-27T05:46:27;98815.70;;;8.86;100.00
57024;BME280;42916;54.346;18.562;2022-09-27T05:48:54;98817.95;;;8.90;100.00
57024;BME280;42916;54.346;18.562;2022-09-27T05:51:21;98821.61;;;8.94;100.00
57024;BME280;42916;54.346;18.562;2022-09-27T05:53:48;98819.52;;;8.98;100.00
57024;BME280;42916;54.346;18.562;2022-09-27T05:56:21;98822.37;;;9.02;100.00
57024;BME280;42916;54.346;18.562;2022-09-27T05:59:06;98821.09;;;9.06;100.00
57024;BME280;42916;54.346;18.562;2022-09-27T06:01:53;98821.73;;;9.06;100.00
57024;BME280;42916;54.346;18.562;2022-09-27T06:04:39;98816.52;;;9.06;100.00
57024;BME280;42916;54.346;18.562;2022-09-27T06:07:32;98812.95;;;9.06;100.00
57024;BME280;42916;54.346;18.562;2022-09-27T06:10:00;98818.23;;;9.11;100.00
57024;BME280;42916;54.346;18.562;2022-09-27T06:12:27;98819.48;;;9.16;100.00
57024;BME280;42916;54.346;18.562;2022-09-27T06:14:53;98818.52;;;9.21;100.00
57024;BME280;42916;54.346;18.562;2022-09-27T06:17:34;98819.90;;;9.24;100.00
57024;BME280;42916;54.346;18.562;2022-09-27T06:20:06;98818.98;;;9.30;100.00
57024;BME280;42916;54.346;18.562;2022-09-27T06:22:35;98822.54;;;9.32;100.00
57024;BME280;42916;54.346;18.562;2022-09-27T06:25:03;98821.98;;;9.33;100.00
57024;BME280;42916;54.346;18.562;2022-09-27T06:27:33;98822.81;;;9.32;100.00
57024;BME280;42916;54.346;18.562;2022-09-27T06:30:07;98821.74;;;9.31;100.00
57024;BME280;42916;54.346;18.562;2022-09-27T06:32:54;98819.84;;;9.25;100.00
57024;BME280;42916;54.346;18.562;2022-09-27T06:35:28;98820.11;;;9.18;100.00
57024;BME280;42916;54.346;18.562;2022-09-27T06:37:56;98814.21;;;9.16;100.00
57024;BME280;42916;54.346;18.562;2022-09-27T06:40:24;98819.25;;;9.17;100.00
57024;BME280;42916;54.346;18.562;2022-09-27T06:42:52;98819.94;;;9.20;100.00
57024;BME280;42916;54.346;18.562;2022-09-27T06:45:45;98822.45;;;9.29;100.00
57024;BME280;42916;54.346;18.562;2022-09-27T06:48:51;98823.77;;;9.41;100.00
57024;BME280;42916;54.346;18.562;2022-09-27T06:51:19;98832.54;;;9.42;100.00
57024;BME280;42916;54.346;18.562;2022-09-27T06:53:45;98839.20;;;9.39;100.00
57024;BME280;42916;54.346;18.562;2022-09-27T06:56:13;98842.94;;;9.39;100.00
57024;BME280;42916;54.346;18.562;2022-09-27T06:59:05;98842.41;;;9.48;100.00
57024;BME280;42916;54.346;18.562;2022-09-27T07:02:09;98839.10;;;9.55;100.00
57024;BME280;42916;54.346;18.562;2022-09-27T07:04:57;98839.29;;;9.57;100.00
57024;BME280;42916;54.346;18.562;2022-09-27T07:07:46;98842.15;;;9.58;100.00
57024;BME280;42916;54.346;18.562;2022-09-27T07:10:14;98835.67;;;9.65;100.00
57024;BME280;42916;54.346;18.562;2022-09-27T07:12:44;98837.21;;;9.75;100.00
57024;BME280;42916;54.346;18.562;2022-09-27T07:15:15;98837.54;;;9.85;100.00
57024;BME280;42916;54.346;18.562;2022-09-27T07:17:42;98842.37;;;9.95;100.00
57024;BME280;42916;54.346;18.562;2022-09-27T07:20:08;98850.90;;;10.03;100.00
57024;BME280;42916;54.346;18.562;2022-09-27T07:22:39;98854.23;;;10.12;100.00
57024;BME280;42916;54.346;18.562;2022-09-27T07:25:08;98853.81;;;10.20;100.00
57024;BME280;42916;54.346;18.562;2022-09-27T07:27:35;98858.20;;;10.20;100.00
57024;BME280;42916;54.346;18.562;2022-09-27T07:30:02;98849.70;;;10.23;100.00
57024;BME280;42916;54.346;18.562;2022-09-27T07:32:29;98844.25;;;10.29;100.00
57024;BME280;42916;54.346;18.562;2022-09-27T07:34:56;98843.10;;;10.36;100.00
57024;BME280;42916;54.346;18.562;2022-09-27T07:37:22;98843.40;;;10.46;100.00
57024;BME280;42916;54.346;18.562;2022-09-27T07:39:49;98844.48;;;10.53;100.00
57024;BME280;42916;54.346;18.562;2022-09-27T07:42:18;98853.16;;;10.56;100.00
57024;BME280;42916;54.346;18.562;2022-09-27T07:44:49;98850.27;;;10.61;100.00
57024;BME280;42916;54.346;18.562;2022-09-27T07:47:40;98853.31;;;10.68;100.00
57024;BME280;42916;54.346;18.562;2022-09-27T07:50:19;98849.51;;;10.76;100.00
57024;BME280;42916;54.346;18.562;2022-09-27T07:53:18;98850.51;;;10.93;100.00
57024;BME280;42916;54.346;18.562;2022-09-27T07:55:53;98845.73;;;11.09;100.00
57024;BME280;42916;54.346;18.562;2022-09-27T07:58:23;98843.14;;;11.19;100.00
57024;BME280;42916;54.346;18.562;2022-09-27T08:00:53;98849.41;;;11.27;100.00
57024;BME280;42916;54.346;18.562;2022-09-27T08:03:21;98851.14;;;11.38;100.00
57024;BME280;42916;54.346;18.562;2022-09-27T08:05:48;98852.74;;;11.49;100.00
57024;BME280;42916;54.346;18.562;2022-09-27T08:08:15;98853.46;;;11.58;100.00
57024;BME280;42916;54.346;18.562;2022-09-27T08:10:43;98853.15;;;11.63;100.00
57024;BME280;42916;54.346;18.562;2022-09-27T08:13:13;98858.13;;;11.68;100.00
57024;BME280;42916;54.346;18.562;2022-09-27T08:15:40;98858.89;;;11.68;100.00
57024;BME280;42916;54.346;18.562;2022-09-27T08:18:08;98854.10;;;11.67;100.00
57024;BME280;42916;54.346;18.562;2022-09-27T08:20:59;98855.66;;;11.66;100.00
57024;BME280;42916;54.346;18.562;2022-09-27T08:23:30;98855.80;;;11.67;100.00
57024;BME280;42916;54.346;18.562;2022-09-27T08:26:19;98848.76;;;11.78;100.00
57024;BME280;42916;54.346;18.562;2022-09-27T08:28:55;98852.55;;;11.84;100.00
57024;BME280;42916;54.346;18.562;2022-09-27T08:31:25;98852.21;;;11.87;100.00
57024;BME280;42916;54.346;18.562;2022-09-27T08:33:54;98857.41;;;11.91;100.00
57024;BME280;42916;54.346;18.562;2022-09-27T08:36:22;98854.75;;;11.96;100.00
57024;BME280;42916;54.346;18.562;2022-09-27T08:38:50;98858.67;;;12.02;100.00
57024;BME280;42916;54.346;18.562;2022-09-27T08:41:37;98858.77;;;12.08;100.00
57024;BME280;42916;54.346;18.562;2022-09-27T08:47:14;98851.02;;;12.20;100.00
57024;BME280;42916;54.346;18.562;2022-09-27T08:49:51;98851.80;;;12.19;100.00
57024;BME280;42916;54.346;18.562;2022-09-27T08:52:41;98850.94;;;12.21;100.00
57024;BME280;42916;54.346;18.562;2022-09-27T08:57:54;98848.95;;;12.25;100.00
57024;BME280;42916;54.346;18.562;2022-09-27T09:00:22;98844.38;;;12.27;100.00
57024;BME280;42916;54.346;18.562;2022-09-27T09:02:49;98846.37;;;12.29;100.00
57024;BME280;42916;54.346;18.562;2022-09-27T09:05:26;98846.88;;;12.35;100.00
57024;BME280;42916;54.346;18.562;2022-09-27T09:11:05;98836.11;;;12.59;100.00
57024;BME280;42916;54.346;18.562;2022-09-27T09:25:52;98830.09;;;13.23;100.00
57024;BME280;42916;54.346;18.562;2022-09-27T09:36:44;98832.25;;;13.65;99.98
57024;BME280;42916;54.346;18.562;2022-09-27T09:39:18;98825.98;;;13.71;99.89
57024;BME280;42916;54.346;18.562;2022-09-27T09:42:09;98823.31;;;13.85;99.48
57024;BME280;42916;54.346;18.562;2022-09-27T09:47:33;98822.20;;;14.09;98.56
57024;BME280;42916;54.346;18.562;2022-09-27T09:52:42;98816.54;;;14.31;98.09
57024;BME280;42916;54.346;18.562;2022-09-27T09:55:23;98813.62;;;14.41;97.45
57024;BME280;42916;54.346;18.562;2022-09-27T09:58:34;98815.35;;;14.43;96.84
57024;BME280;42916;54.346;18.562;2022-09-27T10:01:15;98814.36;;;14.38;96.21
57024;BME280;42916;54.346;18.562;2022-09-27T10:03:44;98808.28;;;14.49;96.69
57024;BME280;42916;54.346;18.562;2022-09-27T10:06:12;98810.41;;;14.59;96.17
57024;BME280;42916;54.346;18.562;2022-09-27T10:08:40;98806.15;;;14.63;95.38
57024;BME280;42916;54.346;18.562;2022-09-27T10:11:35;98811.14;;;14.70;95.24
57024;BME280;42916;54.346;18.562;2022-09-27T10:14:20;98810.30;;;14.81;94.83
57024;BME280;42916;54.346;18.562;2022-09-27T10:16:53;98809.43;;;14.86;94.34
57024;BME280;42916;54.346;18.562;2022-09-27T10:19:31;98810.91;;;14.93;94.45
57024;BME280;42916;54.346;18.562;2022-09-27T10:22:09;98805.30;;;15.00;93.47
57024;BME280;42916;54.346;18.562;2022-09-27T10:27:54;98803.77;;;15.05;92.51
57024;BME280;42916;54.346;18.562;2022-09-27T10:30:31;98805.06;;;15.09;92.22
57024;BME280;42916;54.346;18.562;2022-09-27T10:33:05;98807.38;;;15.14;91.58
57024;BME280;42916;54.346;18.562;2022-09-27T10:35:45;98806.46;;;15.21;91.26
57024;BME280;42916;54.346;18.562;2022-09-27T10:38:25;98804.54;;;15.20;90.24
57024;BME280;42916;54.346;18.562;2022-09-27T10:41:35;98802.70;;;15.14;89.59
57024;BME280;42916;54.346;18.562;2022-09-27T10:46:43;98796.70;;;15.18;89.28
57024;BME280;42916;54.346;18.562;2022-09-27T10:49:21;98795.24;;;15.26;89.05
57024;BME280;42916;54.346;18.562;2022-09-27T10:52:04;98793.05;;;15.32;89.14
57024;BME280;42916;54.346;18.562;2022-09-27T10:54:34;98789.67;;;15.33;88.42
57024;BME280;42916;54.346;18.562;2022-09-27T10:57:17;98783.59;;;15.32;88.04
57024;BME280;42916;54.346;18.562;2022-09-27T10:59:50;98784.00;;;15.25;87.42
57024;BME280;42916;54.346;18.562;2022-09-27T11:02:26;98781.61;;;15.24;87.34
57024;BME280;42916;54.346;18.562;2022-09-27T11:07:56;98784.69;;;15.17;87.00
57024;BME280;42916;54.346;18.562;2022-09-27T11:10:37;98788.26;;;15.19;86.91
57024;BME280;42916;54.346;18.562;2022-09-27T11:13:15;98784.90;;;15.24;87.35
57024;BME280;42916;54.346;18.562;2022-09-27T11:16:17;98786.17;;;15.30;87.36
57024;BME280;42916;54.346;18.562;2022-09-27T11:19:28;98783.68;;;15.34;86.56
57024;BME280;42916;54.346;18.562;2022-09-27T11:30:22;98783.64;;;15.56;86.42
57024;BME280;42916;54.346;18.562;2022-09-27T11:36:00;98778.11;;;15.64;86.52
57024;BME280;42916;54.346;18.562;2022-09-27T11:46:33;98766.98;;;15.96;86.15
57024;BME280;42916;54.346;18.562;2022-09-27T11:49:08;98766.66;;;16.02;85.69
57024;BME280;42916;54.346;18.562;2022-09-27T11:54:37;98763.70;;;16.18;85.42
57024;BME280;42916;54.346;18.562;2022-09-27T12:00:20;98763.70;;;16.30;83.33
57024;BME280;42916;54.346;18.562;2022-09-27T12:06:00;98761.15;;;16.28;82.16
57024;BME280;42916;54.346;18.562;2022-09-27T12:11:29;98752.67;;;16.24;80.87
57024;BME280;42916;54.346;18.562;2022-09-27T12:14:05;98753.58;;;16.16;79.87
57024;BME280;42916;54.346;18.562;2022-09-27T12:16:38;98749.52;;;16.13;80.05
57024;BME280;42916;54.346;18.562;2022-09-27T12:19:14;98742.09;;;16.11;79.71
57024;BME280;42916;54.346;18.562;2022-09-27T12:21:54;98741.13;;;16.08;79.99
57024;BME280;42916;54.346;18.562;2022-09-27T12:24:22;98739.88;;;16.13;80.16
57024;BME280;42916;54.346;18.562;2022-09-27T12:27:57;98736.86;;;16.15;80.34
57024;BME280;42916;54.346;18.562;2022-09-27T12:30:22;98733.39;;;16.17;80.31
57024;BME280;42916;54.346;18.562;2022-09-27T12:33:28;98728.98;;;16.15;80.50
57024;BME280;42916;54.346;18.562;2022-09-27T12:36:03;98730.20;;;16.16;80.90
57024;BME280;42916;54.346;18.562;2022-09-27T12:38:51;98728.31;;;16.10;80.05
57024;BME280;42916;54.346;18.562;2022-09-27T12:41:23;98725.25;;;15.99;79.42
57024;BME280;42916;54.346;18.562;2022-09-27T12:44:09;98722.67;;;15.92;79.41
57024;BME280;42916;54.346;18.562;2022-09-27T12:46:58;98722.46;;;15.90;79.83
57024;BME280;42916;54.346;18.562;2022-09-27T12:49:44;98723.51;;;15.93;79.97
57024;BME280;42916;54.346;18.562;2022-09-27T12:52:20;98720.47;;;15.95;80.06
57024;BME280;42916;54.346;18.562;2022-09-27T12:55:10;98718.91;;;15.95;80.50
57024;BME280;42916;54.346;18.562;2022-09-27T13:00:21;98714.73;;;16.01;81.74
57024;BME280;42916;54.346;18.562;2022-09-27T13:06:04;98716.52;;;16.02;81.55
57024;BME280;42916;54.346;18.562;2022-09-27T13:09:04;98714.24;;;16.03;82.02
57024;BME280;42916;54.346;18.562;2022-09-27T13:14:34;98707.66;;;16.04;81.90
57024;BME280;42916;54.346;18.562;2022-09-27T13:17:04;98701.41;;;16.07;81.67
57024;BME280;42916;54.346;18.562;2022-09-27T13:19:39;98700.73;;;16.09;81.96
57024;BME280;42916;54.346;18.562;2022-09-27T13:22:54;98696.17;;;16.13;81.71
57024;BME280;42916;54.346;18.562;2022-09-27T13:25:52;98691.95;;;16.17;81.07
57024;BME280;42916;54.346;18.562;2022-09-27T13:33:48;98691.95;;;16.22;79.77
57024;BME280;42916;54.346;18.562;2022-09-27T13:44:38;98681.44;;;16.39;79.14
57024;BME280;42916;54.346;18.562;2022-09-27T13:49:45;98675.08;;;16.83;78.78
57024;BME280;42916;54.346;18.562;2022-09-27T13:52:33;98675.95;;;16.96;78.83
57024;BME280;42916;54.346;18.562;2022-09-27T13:55:40;98678.95;;;17.27;79.31
57024;BME280;42916;54.346;18.562;2022-09-27T14:00:50;98675.81;;;17.46;77.24
57024;BME280;42916;54.346;18.562;2022-09-27T14:03:33;98676.55;;;17.33;77.02
57024;BME280;42916;54.346;18.562;2022-09-27T14:06:05;98681.61;;;17.10;77.04
57024;BME280;42916;54.346;18.562;2022-09-27T14:08:38;98673.14;;;16.90;77.30
57024;BME280;42916;54.346;18.562;2022-09-27T14:11:11;98674.61;;;16.67;77.24
57024;BME280;42916;54.346;18.562;2022-09-27T14:13:39;98686.70;;;16.48;77.86
57024;BME280;42916;54.346;18.562;2022-09-27T14:16:13;98683.15;;;16.28;77.52
57024;BME280;42916;54.346;18.562;2022-09-27T14:18:50;98677.27;;;16.09;77.28
57024;BME280;42916;54.346;18.562;2022-09-27T14:21:31;98674.39;;;15.91;77.65
57024;BME280;42916;54.346;18.562;2022-09-27T14:27:25;98675.40;;;15.69;77.79
57024;BME280;42916;54.346;18.562;2022-09-27T14:30:14;98669.70;;;15.77;78.43
57024;BME280;42916;54.346;18.562;2022-09-27T14:32:47;98670.35;;;15.96;78.63
57024;BME280;42916;54.346;18.562;2022-09-27T14:35:23;98667.72;;;16.07;78.51
57024;BME280;42916;54.346;18.562;2022-09-27T14:38:19;98663.83;;;16.31;78.37
57024;BME280;42916;54.346;18.562;2022-09-27T14:40:54;98660.48;;;16.65;78.26
57024;BME280;42916;54.346;18.562;2022-09-27T14:43:24;98660.62;;;16.91;77.93
57024;BME280;42916;54.346;18.562;2022-09-27T14:45:52;98664.41;;;16.99;77.28
57024;BME280;42916;54.346;18.562;2022-09-27T14:48:27;98662.11;;;17.03;77.22
57024;BME280;42916;54.346;18.562;2022-09-27T14:51:02;98661.93;;;17.02;77.18
57024;BME280;42916;54.346;18.562;2022-09-27T14:53:40;98662.00;;;16.92;76.75
57024;BME280;42916;54.346;18.562;2022-09-27T14:56:14;98657.05;;;16.77;77.03
57024;BME280;42916;54.346;18.562;2022-09-27T14:58:54;98654.81;;;16.62;77.17
57024;BME280;42916;54.346;18.562;2022-09-27T15:01:23;98646.38;;;16.47;77.48
57024;BME280;42916;54.346;18.562;2022-09-27T15:03:50;98651.52;;;16.40;77.93
57024;BME280;42916;54.346;18.562;2022-09-27T15:06:19;98653.55;;;16.34;78.35
57024;BME280;42916;54.346;18.562;2022-09-27T15:08:47;98655.77;;;16.30;78.63
57024;BME280;42916;54.346;18.562;2022-09-27T15:11:21;98654.17;;;16.18;78.40
57024;BME280;42916;54.346;18.562;2022-09-27T15:14:25;98650.72;;;16.03;78.65
57024;BME280;42916;54.346;18.562;2022-09-27T15:16:55;98647.30;;;15.94;79.24
57024;BME280;42916;54.346;18.562;2022-09-27T15:19:28;98647.45;;;15.83;79.30
57024;BME280;42916;54.346;18.562;2022-09-27T15:21:55;98649.42;;;15.72;79.66
57024;BME280;42916;54.346;18.562;2022-09-27T15:24:45;98648.12;;;15.64;79.84
57024;BME280;42916;54.346;18.562;2022-09-27T15:27:21;98643.86;;;15.58;80.10
57024;BME280;42916;54.346;18.562;2022-09-27T15:29:51;98650.15;;;15.52;80.42
57024;BME280;42916;54.346;18.562;2022-09-27T15:32:23;98646.02;;;15.49;80.76
57024;BME280;42916;54.346;18.562;2022-09-27T15:34:52;98647.05;;;15.47;80.88
57024;BME280;42916;54.346;18.562;2022-09-27T15:37:34;98644.77;;;15.47;81.15
57024;BME280;42916;54.346;18.562;2022-09-27T15:42:58;98644.83;;;15.46;81.68
57024;BME280;42916;54.346;18.562;2022-09-27T15:45:34;98646.48;;;15.43;81.88
57024;BME280;42916;54.346;18.562;2022-09-27T15:48:12;98646.30;;;15.36;81.93
57024;BME280;42916;54.346;18.562;2022-09-27T15:50:39;98643.09;;;15.26;82.20
57024;BME280;42916;54.346;18.562;2022-09-27T15:53:08;98639.79;;;15.16;82.24
57024;BME280;42916;54.346;18.562;2022-09-27T15:55:40;98638.66;;;15.06;82.47
57024;BME280;42916;54.346;18.562;2022-09-27T15:58:13;98640.59;;;14.98;83.16
57024;BME280;42916;54.346;18.562;2022-09-27T16:00:58;98641.33;;;14.91;83.48